createdAt,value
2018-01-22T00:00:31.851Z,12.75
2018-01-22T00:02:59.412Z,14.20
2018-01-22T00:05:27.676Z,13.55
2018-01-22T00:07:55.940Z,13.75
2018-01-22T00:10:24.200Z,13.18
2018-01-22T00:12:52.464Z,12.70
2018-01-22T00:15:20.719Z,13.23
2018-01-22T00:17:49.090Z,12.82
2018-01-22T00:20:17.340Z,13.57
2018-01-22T00:22:45.592Z,13.50
2018-01-22T00:25:13.955Z,13.68
2018-01-22T00:27:42.226Z,12.80
2018-01-22T00:30:10.464Z,12.95
2018-01-22T00:32:37.920Z,12.40
2018-01-22T00:35:06.179Z,12.50
2018-01-22T00:37:34.416Z,12.52
2018-01-22T00:40:01.984Z,12.35
2018-01-22T00:42:30.248Z,12.18
2018-01-22T00:44:58.484Z,12.20
2018-01-22T00:47:25.956Z,12.68
2018-01-22T00:49:53.438Z,11.85
2018-01-22T00:52:20.964Z,10.45
2018-01-22T00:54:49.195Z,11.20
2018-01-22T00:57:16.672Z,11.60
2018-01-22T00:59:44.924Z,11.90
2018-01-22T01:05:05.401Z,11.57
2018-01-22T01:07:32.951Z,11.93
2018-01-22T01:10:01.220Z,11.27
2018-01-22T01:12:29.457Z,11.40
2018-01-22T01:14:56.937Z,11.93
2018-01-22T01:17:24.433Z,10.90
2018-01-22T01:19:51.996Z,10.95
2018-01-22T01:22:20.270Z,11.35
2018-01-22T01:24:48.532Z,10.10
2018-01-22T01:27:16.768Z,10.45
2018-01-22T01:29:44.264Z,9.45
2018-01-22T01:32:11.737Z,9.35
2018-01-22T01:34:39.196Z,10.02
2018-01-22T01:37:06.701Z,9.80
2018-01-22T01:39:34.140Z,9.30
2018-01-22T01:42:01.637Z,8.93
2018-01-22T01:44:29.893Z,8.73
2018-01-22T01:46:58.128Z,9.30
2018-01-22T01:49:25.591Z,9.02
2018-01-22T01:51:53.048Z,9.02
2018-01-22T01:54:20.519Z,8.18
2018-01-22T01:56:48.748Z,8.25
2018-01-22T01:59:16.324Z,8.63
2018-01-22T02:01:44.552Z,8.40
2018-01-22T02:04:12.024Z,7.80
2018-01-22T02:06:40.286Z,8.23
2018-01-22T02:09:08.540Z,7.68
2018-01-22T02:11:36.804Z,7.30
2018-01-22T02:14:05.052Z,7.90
2018-01-22T02:16:32.607Z,7.10
2018-01-22T02:19:00.883Z,7.18
2018-01-22T02:21:29.129Z,7.43
2018-01-22T02:23:56.592Z,7.65
2018-01-22T02:26:24.095Z,6.85
2018-01-22T02:28:52.348Z,7.32
2018-01-22T02:31:20.581Z,6.95
2018-01-22T02:33:48.149Z,7.00
2018-01-22T02:36:16.379Z,6.72
2018-01-22T02:38:43.858Z,7.90
2018-01-22T02:41:12.218Z,7.22
2018-01-22T02:43:40.476Z,7.60
2018-01-22T02:46:08.700Z,6.85
2018-01-22T02:48:36.164Z,7.50
2018-01-22T02:51:03.619Z,7.30
2018-01-22T02:53:31.843Z,7.40
2018-01-22T02:55:59.312Z,8.37
2018-01-22T02:58:27.543Z,8.00
2018-01-22T03:00:55.020Z,7.53
2018-01-22T03:03:23.254Z,8.10
2018-01-22T03:05:50.816Z,7.70
2018-01-22T03:08:19.123Z,7.90
2018-01-22T03:10:46.620Z,7.68
2018-01-22T03:13:14.878Z,7.10
2018-01-22T03:15:43.132Z,7.50
2018-01-22T03:18:10.652Z,8.17
2018-01-22T03:20:38.120Z,8.10
2018-01-22T03:23:05.684Z,7.35
2018-01-22T03:25:33.140Z,7.80
2018-01-22T03:28:00.629Z,7.40
2018-01-22T03:30:28.090Z,7.82
2018-01-22T03:32:55.583Z,8.23
2018-01-22T03:35:23.855Z,7.50
2018-01-22T03:37:52.088Z,6.78
2018-01-22T03:40:19.553Z,8.00
2018-01-22T03:42:47.799Z,7.90
2018-01-22T03:45:16.064Z,7.20
2018-01-22T03:47:44.337Z,7.40
2018-01-22T03:50:12.596Z,7.68
2018-01-22T03:52:40.816Z,7.50
2018-01-22T03:55:08.399Z,7.00
2018-01-22T03:57:36.633Z,7.45
2018-01-22T04:00:04.204Z,7.30
2018-01-22T04:02:32.436Z,7.30
2018-01-22T04:04:59.953Z,7.95
2018-01-22T04:07:27.448Z,7.32
2018-01-22T04:09:55.716Z,7.82
2018-01-22T04:12:24.008Z,7.28
2018-01-22T04:14:51.550Z,7.50
2018-01-22T04:17:19.040Z,7.10
2018-01-22T04:19:47.411Z,7.60
2018-01-22T04:22:15.718Z,7.97
2018-01-22T04:24:43.184Z,7.78
2018-01-22T04:27:11.547Z,8.10
2018-01-22T04:29:39.780Z,7.75
2018-01-22T04:32:07.244Z,7.10
2018-01-22T04:34:35.557Z,7.28
2018-01-22T04:37:03.104Z,8.10
2018-01-22T04:39:30.602Z,7.80
2018-01-22T04:41:58.832Z,7.93
2018-01-22T04:44:26.320Z,8.25
2018-01-22T04:46:53.832Z,7.80
2018-01-22T04:49:21.378Z,8.90
2018-01-22T04:51:49.608Z,8.55
2018-01-22T04:54:17.082Z,8.38
2018-01-22T04:56:45.344Z,8.40
2018-01-22T04:59:12.802Z,8.75
2018-01-22T05:01:41.031Z,8.50
2018-01-22T05:04:08.546Z,9.25
2018-01-22T05:06:36.004Z,8.50
2018-01-22T05:09:04.339Z,8.95
2018-01-22T05:11:31.854Z,8.82
2018-01-22T05:13:59.379Z,8.85
2018-01-22T05:16:27.613Z,9.00
2018-01-22T05:18:55.068Z,9.30
2018-01-22T05:21:22.618Z,8.70
2018-01-22T05:23:50.086Z,8.93
2018-01-22T05:26:18.310Z,8.73
2018-01-22T05:28:45.784Z,8.60
2018-01-22T05:31:14.023Z,9.10
2018-01-22T05:33:41.480Z,9.10
2018-01-22T05:36:09.036Z,9.30
2018-01-22T05:38:37.297Z,9.23
2018-01-22T05:41:05.552Z,8.70
2018-01-22T05:43:33.785Z,10.10
2018-01-22T05:46:01.249Z,9.90
2018-01-22T05:48:28.846Z,10.50
2018-01-22T05:50:56.300Z,9.30
2018-01-22T05:53:23.787Z,10.10
2018-01-22T05:55:52.021Z,9.13
2018-01-22T05:58:19.481Z,9.63
2018-01-22T06:00:46.952Z,9.25
2018-01-22T06:03:14.536Z,10.13
2018-01-22T06:05:42.763Z,10.30
2018-01-22T06:08:10.232Z,10.10
2018-01-22T06:10:38.464Z,9.30
2018-01-22T06:13:05.940Z,9.60
2018-01-22T06:15:33.471Z,9.50
2018-01-22T06:18:01.709Z,8.70
2018-01-22T06:20:29.288Z,9.40
2018-01-22T06:22:56.832Z,10.52
2018-01-22T06:25:24.317Z,10.23
2018-01-22T06:27:51.869Z,10.73
2018-01-22T06:30:19.453Z,9.85
2018-01-22T06:32:47.819Z,9.65
2018-01-22T06:35:16.051Z,9.82
2018-01-22T06:37:43.634Z,10.63
2018-01-22T06:40:11.169Z,10.77
2018-01-22T06:42:39.418Z,11.40
2018-01-22T06:45:07.658Z,12.00
2018-01-22T06:47:35.203Z,12.75
2018-01-22T06:50:02.679Z,13.43
2018-01-22T06:52:30.152Z,12.50
2018-01-22T06:54:57.694Z,12.32
2018-01-22T06:57:25.218Z,13.23
2018-01-22T06:59:52.686Z,13.50
2018-01-22T07:05:10.766Z,12.95
2018-01-22T07:07:39.231Z,12.68
2018-01-22T07:10:07.469Z,12.63
2018-01-22T07:12:35.033Z,13.55
2018-01-22T07:15:03.288Z,13.57
2018-01-22T07:17:31.524Z,13.30
2018-01-22T07:19:58.996Z,14.18
2018-01-22T07:22:27.356Z,15.27
2018-01-22T07:24:55.613Z,14.77
2018-01-22T07:27:23.872Z,14.68
2018-01-22T07:29:52.331Z,15.50
2018-01-22T07:32:20.643Z,16.20
2018-01-22T07:34:48.149Z,15.40
2018-01-22T07:37:16.380Z,17.47
2018-01-22T07:39:43.860Z,17.10
2018-01-22T07:42:11.336Z,17.60
2018-01-22T07:44:38.880Z,17.60
2018-01-22T07:47:06.377Z,17.27
2018-01-22T07:49:34.600Z,16.40
2018-01-22T07:52:02.175Z,17.50
2018-01-22T07:54:30.428Z,18.92
2018-01-22T07:56:57.884Z,16.95
2018-01-22T07:59:26.133Z,16.23
2018-01-22T08:01:54.393Z,17.05
2018-01-22T08:04:22.651Z,16.92
2018-01-22T08:06:50.923Z,17.50
2018-01-22T08:09:19.187Z,16.95
2018-01-22T08:11:47.467Z,16.95
2018-01-22T08:14:14.895Z,16.60
2018-01-22T08:16:42.358Z,17.27
2018-01-22T08:19:09.825Z,17.73
2018-01-22T08:21:37.316Z,16.65
2018-01-22T08:24:05.564Z,16.40
2018-01-22T08:26:33.831Z,17.20
2018-01-22T08:29:02.088Z,16.92
2018-01-22T08:31:30.335Z,17.15
2018-01-22T08:33:58.580Z,17.20
2018-01-22T08:36:26.053Z,17.45
2018-01-22T08:38:54.297Z,17.85
2018-01-22T08:41:22.613Z,18.23
2018-01-22T08:43:50.101Z,19.58
2018-01-22T08:46:18.340Z,20.83
2018-01-22T08:48:45.803Z,20.90
2018-01-22T08:51:14.076Z,20.92
2018-01-22T08:53:42.530Z,22.33
2018-01-22T08:56:10.765Z,24.25
2018-01-22T08:58:38.246Z,25.80
2018-01-22T09:01:05.893Z,25.08
2018-01-22T09:03:34.120Z,24.80
2018-01-22T09:06:01.584Z,25.20
2018-01-22T09:08:29.843Z,28.48
2018-01-22T09:10:58.092Z,28.30
2018-01-22T09:16:16.236Z,27.73
2018-01-22T09:18:44.492Z,27.48
2018-01-22T09:21:12.728Z,28.35
2018-01-22T09:23:40.297Z,28.40
2018-01-22T09:26:08.526Z,26.95
2018-01-22T09:28:36.020Z,25.90
2018-01-22T09:31:03.492Z,26.77
2018-01-22T09:33:30.984Z,23.90
2018-01-22T09:35:59.239Z,26.12
2018-01-22T09:38:27.469Z,23.73
2018-01-22T09:40:54.942Z,23.33
2018-01-22T09:43:23.168Z,24.60
2018-01-22T09:45:50.740Z,22.60
2018-01-22T09:48:19.005Z,22.98
2018-01-22T09:53:38.968Z,21.52
2018-01-22T09:56:07.234Z,20.25
2018-01-22T09:58:35.596Z,20.80
2018-01-22T10:01:03.836Z,20.65
2018-01-22T10:03:31.304Z,20.10
2018-01-22T10:05:59.548Z,18.45
2018-01-22T10:08:27.020Z,18.95
2018-01-22T10:10:54.488Z,18.73
2018-01-22T10:13:22.084Z,18.45
2018-01-22T10:15:50.320Z,18.87
2018-01-22T10:21:08.274Z,18.80
2018-01-22T10:23:36.512Z,17.50
2018-01-22T10:26:03.987Z,16.67
2018-01-22T10:28:31.525Z,16.87
2018-01-22T10:30:58.992Z,13.95
2018-01-22T10:33:26.504Z,14.95
2018-01-22T10:35:54.764Z,14.10
2018-01-22T10:38:23.011Z,14.93
2018-01-22T10:40:51.257Z,14.57
2018-01-22T10:43:18.712Z,16.50
2018-01-22T10:45:46.948Z,15.45
2018-01-22T10:48:14.517Z,16.20
2018-01-22T10:50:42.755Z,17.23
2018-01-22T10:53:10.228Z,17.65
2018-01-22T10:55:38.500Z,18.40
2018-01-22T10:58:06.009Z,18.35
2018-01-22T11:00:33.472Z,19.40
2018-01-22T11:03:01.736Z,20.98
2018-01-22T11:05:30.000Z,19.67
2018-01-22T11:07:58.245Z,21.27
2018-01-22T11:10:26.506Z,23.10
2018-01-22T11:12:54.868Z,23.60
2018-01-22T11:15:28.796Z,22.30
2018-01-22T11:17:56.289Z,21.90
2018-01-22T11:20:23.852Z,23.45
2018-01-22T11:22:52.084Z,24.05
2018-01-22T11:25:21.069Z,24.63
2018-01-22T11:27:48.760Z,24.90
2018-01-22T11:30:16.288Z,25.35
2018-01-22T11:32:44.538Z,27.95
2018-01-22T11:35:13.529Z,25.45
2018-01-22T11:37:41.001Z,25.98
2018-01-22T11:40:08.604Z,28.73
2018-01-22T11:42:36.864Z,27.20
2018-01-22T11:45:05.090Z,24.05
2018-01-22T11:47:32.607Z,26.30
2018-01-22T11:50:00.091Z,26.30
2018-01-22T11:52:28.405Z,26.93
2018-01-22T11:54:55.904Z,25.73
2018-01-22T11:57:24.136Z,26.57
2018-01-22T11:59:51.604Z,25.60
2018-01-22T12:02:19.840Z,25.80
2018-01-22T12:04:47.404Z,24.98
2018-01-22T12:07:15.637Z,24.95
2018-01-22T12:09:43.100Z,24.35
2018-01-22T12:12:11.386Z,25.45
2018-01-22T12:14:38.860Z,25.35
2018-01-22T12:17:06.459Z,24.37
2018-01-22T12:19:34.697Z,24.98
2018-01-22T12:22:02.169Z,24.52
2018-01-22T12:24:30.516Z,23.08
2018-01-22T12:26:58.082Z,22.92
2018-01-22T12:29:26.328Z,22.95
2018-01-22T12:31:54.570Z,22.07
2018-01-22T12:34:22.128Z,20.00
2018-01-22T12:36:50.392Z,19.58
2018-01-22T12:39:18.652Z,19.75
2018-01-22T12:41:46.888Z,17.33
2018-01-22T12:44:14.492Z,17.40
2018-01-22T12:46:42.044Z,17.77
2018-01-22T12:49:09.587Z,16.60
2018-01-22T12:51:37.097Z,16.52
2018-01-22T12:54:05.345Z,15.68
2018-01-22T12:56:33.577Z,16.27
2018-01-22T12:59:01.160Z,16.70
2018-01-22T13:01:29.413Z,16.63
2018-01-22T13:03:57.670Z,15.70
2018-01-22T13:06:25.939Z,14.87
2018-01-22T13:08:54.181Z,13.10
2018-01-22T13:11:21.744Z,12.88
2018-01-22T13:13:49.992Z,14.02
2018-01-22T13:16:18.229Z,13.43
2018-01-22T13:18:45.794Z,13.50
2018-01-22T13:21:14.026Z,12.80
2018-01-22T13:23:41.496Z,12.23
2018-01-22T13:26:09.771Z,12.13
2018-01-22T13:28:37.256Z,12.27
2018-01-22T13:31:04.752Z,11.43
2018-01-22T13:33:32.988Z,12.00
2018-01-22T13:36:00.553Z,12.60
2018-01-22T13:38:28.812Z,10.77
2018-01-22T13:41:14.958Z,11.05
2018-01-22T13:43:42.534Z,11.23
2018-01-22T13:46:10.786Z,10.70
2018-01-22T13:48:39.072Z,12.93
2018-01-22T13:51:06.542Z,10.60
2018-01-22T13:53:34.013Z,10.32
2018-01-22T13:56:01.585Z,9.02
2018-01-22T13:58:29.840Z,9.32
2018-01-22T14:00:58.097Z,8.60
2018-01-22T14:03:26.360Z,9.40
2018-01-22T14:05:54.604Z,9.38
2018-01-22T14:08:22.275Z,9.80
2018-01-22T14:10:50.528Z,9.10
2018-01-22T14:13:18.759Z,9.60
2018-01-22T14:15:46.431Z,8.98
2018-01-22T14:18:14.664Z,10.15
2018-01-22T14:20:42.127Z,9.95
2018-01-22T14:23:10.392Z,9.93
2018-01-22T14:25:38.664Z,9.38
2018-01-22T14:28:06.912Z,9.88
2018-01-22T14:30:35.177Z,10.10
2018-01-22T14:35:55.252Z,10.32
2018-01-22T14:38:23.505Z,9.55
2018-01-22T14:40:51.735Z,10.85
2018-01-22T14:43:19.311Z,9.70
2018-01-22T14:45:47.540Z,10.00
2018-01-22T14:48:15.125Z,10.25
2018-01-22T14:50:43.368Z,10.80
2018-01-22T14:53:11.641Z,10.37
2018-01-22T14:55:39.892Z,11.55
2018-01-22T15:00:58.744Z,11.05
2018-01-22T15:03:27.007Z,11.38
2018-01-22T15:05:55.241Z,15.90
2018-01-22T15:08:22.796Z,10.00
2018-01-22T15:10:51.059Z,10.27
2018-01-22T15:13:19.320Z,10.73
2018-01-22T15:15:47.783Z,9.63
2018-01-22T15:18:16.048Z,10.70
2018-01-22T15:20:44.281Z,9.95
2018-01-22T15:23:11.760Z,9.83
2018-01-22T15:25:39.245Z,10.50
2018-01-22T15:28:06.711Z,11.23
2018-01-22T15:30:34.172Z,11.45
2018-01-22T15:33:02.436Z,10.60
2018-01-22T15:38:22.303Z,11.68
2018-01-22T15:40:50.740Z,10.75
2018-01-22T15:43:18.309Z,12.18
2018-01-22T15:45:46.564Z,11.23
2018-01-22T15:48:15.027Z,10.20
2018-01-22T15:50:43.296Z,11.15
2018-01-22T15:53:11.552Z,10.70
2018-01-22T15:55:39.816Z,10.60
2018-01-22T16:04:04.187Z,11.55
2018-01-22T16:06:32.443Z,11.32
2018-01-22T16:11:51.640Z,12.20
2018-01-22T16:14:19.131Z,12.13
2018-01-22T16:16:47.392Z,11.20
2018-01-22T16:19:15.732Z,14.60
2018-01-22T16:21:43.213Z,14.30
2018-01-22T16:24:11.438Z,14.82
2018-01-22T16:26:38.924Z,15.55
2018-01-22T16:29:06.458Z,15.02
2018-01-22T16:31:33.997Z,14.40
2018-01-22T16:34:02.294Z,13.02
2018-01-22T16:36:29.820Z,14.50
2018-01-22T16:38:57.288Z,14.32
2018-01-22T16:41:24.784Z,14.00
2018-01-22T16:46:50.337Z,15.20
2018-01-22T16:49:17.836Z,15.13
2018-01-22T16:51:45.355Z,16.30
2018-01-22T16:54:12.827Z,15.80
2018-01-22T16:56:40.550Z,16.00
2018-01-22T16:59:08.798Z,14.35
2018-01-22T17:01:36.277Z,15.80
2018-01-22T17:04:03.763Z,13.60
2018-01-22T17:06:31.281Z,13.52
2018-01-22T17:08:58.752Z,16.00
2018-01-22T17:11:26.308Z,14.40
2018-01-22T17:16:45.348Z,14.45
2018-01-22T17:19:12.922Z,14.38
2018-01-22T17:21:41.216Z,14.13
2018-01-22T17:24:08.739Z,12.75
2018-01-22T17:26:36.221Z,14.55
2018-01-22T17:29:03.692Z,12.98
2018-01-22T17:31:31.243Z,13.73
2018-01-22T17:36:50.412Z,13.53
2018-01-22T17:39:17.896Z,13.40
2018-01-22T17:41:45.370Z,14.40
2018-01-22T17:44:13.641Z,12.82
2018-01-22T17:46:41.893Z,13.75
2018-01-22T17:49:10.145Z,15.38
2018-01-22T17:51:37.626Z,14.73
2018-01-22T17:54:05.111Z,15.82
2018-01-22T17:56:32.584Z,14.50
2018-01-22T17:59:00.828Z,16.00
2018-01-22T18:04:18.891Z,14.95
2018-01-22T18:06:46.355Z,14.55
2018-01-22T18:09:13.821Z,15.52
2018-01-22T18:11:41.307Z,14.38
2018-01-22T18:14:08.848Z,13.90
2018-01-22T18:16:37.077Z,15.00
2018-01-22T18:19:04.751Z,13.98
2018-01-22T18:21:33.435Z,13.77
2018-01-22T18:24:02.063Z,13.20
2018-01-22T18:32:12.735Z,12.43
2018-01-22T18:34:40.964Z,12.13
2018-01-22T18:37:08.544Z,10.55
2018-01-22T18:39:36.780Z,10.45
2018-01-22T18:42:04.336Z,9.63
2018-01-22T18:44:32.602Z,10.43
2018-01-22T18:47:00.876Z,9.80
2018-01-22T18:49:29.116Z,9.07
2018-01-22T18:51:57.352Z,10.10
2018-01-22T18:54:24.933Z,8.95
2018-01-22T18:59:44.068Z,9.18
2018-01-22T19:02:12.331Z,8.40
2018-01-22T19:04:40.572Z,10.00
2018-01-22T19:07:08.137Z,10.15
2018-01-22T19:09:36.381Z,10.60
2018-01-22T19:12:03.869Z,10.40
2018-01-22T19:14:31.340Z,11.68
2018-01-22T19:16:58.812Z,12.80
2018-01-22T19:19:27.088Z,13.30
2018-01-22T19:21:55.321Z,14.30
2018-01-22T19:30:06.503Z,16.65
2018-01-22T19:32:34.772Z,17.85
2018-01-22T19:35:03.019Z,17.58
2018-01-22T19:43:20.541Z,17.80
2018-01-22T19:45:48.906Z,17.95
2018-01-22T19:51:09.599Z,17.80
2018-01-22T19:59:20.544Z,15.98
2018-01-22T20:07:31.280Z,17.70
2018-01-22T20:12:49.868Z,17.77
2018-01-22T20:15:17.368Z,17.95
2018-01-22T20:17:45.626Z,16.62
2018-01-22T20:20:14.596Z,16.70
2018-01-22T20:25:32.754Z,16.45
2018-01-22T20:28:00.232Z,16.20
2018-01-22T20:30:27.688Z,17.95
2018-01-22T20:32:55.147Z,17.23
2018-01-22T20:35:22.868Z,16.67
2018-01-22T20:37:51.339Z,16.15
2018-01-22T20:40:19.187Z,15.63
2018-01-22T20:42:46.772Z,16.58
2018-01-22T20:45:15.067Z,16.45
2018-01-22T20:47:42.530Z,16.65
2018-01-22T20:50:10.053Z,15.60
2018-01-22T20:52:37.808Z,15.88
2018-01-22T20:55:05.327Z,14.05
2018-01-22T21:00:24.211Z,14.90
2018-01-22T21:02:51.697Z,15.03
2018-01-22T21:05:19.928Z,15.23
2018-01-22T21:07:47.399Z,15.00
2018-01-22T21:10:15.660Z,16.25
2018-01-22T21:12:43.888Z,15.65
2018-01-22T21:15:11.420Z,15.20
2018-01-22T21:17:38.916Z,15.40
2018-01-22T21:20:06.444Z,15.18
2018-01-22T21:22:34.684Z,16.25
2018-01-22T21:25:02.152Z,15.30
2018-01-22T21:27:30.416Z,15.77
2018-01-22T21:29:57.885Z,15.98
2018-01-22T21:32:25.392Z,16.80
2018-01-22T21:34:53.627Z,16.25
2018-01-22T21:37:21.093Z,15.83
2018-01-22T21:42:40.848Z,15.55
2018-01-22T21:45:09.115Z,16.90
2018-01-22T21:47:37.374Z,16.02
2018-01-22T21:50:05.643Z,15.60
2018-01-22T21:52:34.000Z,16.05
2018-01-22T21:55:02.240Z,15.65
2018-01-22T21:57:30.477Z,17.33
2018-01-22T21:59:57.956Z,15.23
2018-01-22T22:02:26.288Z,16.87
2018-01-22T22:04:53.748Z,15.20
2018-01-22T22:07:22.273Z,16.42
2018-01-22T22:09:49.868Z,16.45
2018-01-22T22:12:18.123Z,16.70
2018-01-22T22:14:46.371Z,17.80
2018-01-22T22:17:13.837Z,16.50
2018-01-22T22:19:42.096Z,16.87
2018-01-22T22:22:10.395Z,16.20
2018-01-22T22:24:37.914Z,18.27
2018-01-22T22:27:05.371Z,16.62
2018-01-22T22:29:32.841Z,16.13
2018-01-22T22:32:00.319Z,16.90
2018-01-22T22:34:28.576Z,16.55
2018-01-22T22:36:56.838Z,17.05
2018-01-22T22:39:25.072Z,16.55
2018-01-22T22:41:52.535Z,17.48
2018-01-22T22:44:20.780Z,15.50
2018-01-22T22:46:48.248Z,15.93
2018-01-22T22:49:16.576Z,17.15
2018-01-22T22:51:44.048Z,17.40
2018-01-22T22:54:12.276Z,17.87
2018-01-22T22:56:39.760Z,17.15
2018-01-22T22:59:08.016Z,16.17
2018-01-22T23:01:36.257Z,17.23
2018-01-22T23:04:03.736Z,17.08
2018-01-22T23:06:31.264Z,17.55
2018-01-22T23:08:59.522Z,17.23
2018-01-22T23:11:27.773Z,17.27
2018-01-22T23:13:56.052Z,16.92
2018-01-22T23:16:23.520Z,17.00
2018-01-22T23:18:50.980Z,15.77
2018-01-22T23:21:18.454Z,16.60
2018-01-22T23:23:46.708Z,15.67
2018-01-22T23:26:14.180Z,15.77
2018-01-22T23:28:41.704Z,17.15
2018-01-22T23:31:09.957Z,15.93
2018-01-22T23:33:37.513Z,17.27
2018-01-22T23:36:05.741Z,17.10
2018-01-22T23:38:33.208Z,16.08
2018-01-22T23:41:01.618Z,16.40
2018-01-22T23:43:29.112Z,17.02
2018-01-22T23:45:57.384Z,16.17
2018-01-22T23:48:25.616Z,17.20
2018-01-22T23:50:53.900Z,17.70
2018-01-22T23:53:22.128Z,16.75
2018-01-22T23:55:49.695Z,16.40
2018-01-22T23:58:17.963Z,15.82
